sensor_id;sensor_type;location;lat;lon;timestamp;P1;durP1;ratioP1;P2;durP2;ratioP2
72085;SDS011;64750;52.134;5.424;2022-12-20T00:01:21;1.70;;;1.60;;
72085;SDS011;64750;52.134;5.424;2022-12-20T00:03:52;2.80;;;1.70;;
72085;SDS011;64750;52.134;5.424;2022-12-20T00:06:19;4.25;;;2.10;;
72085;SDS011;64750;52.134;5.424;2022-12-20T00:08:51;2.83;;;1.65;;
72085;SDS011;64750;52.134;5.424;2022-12-20T00:11:22;1.92;;;1.70;;
72085;SDS011;64750;52.134;5.424;2022-12-20T00:13:49;1.73;;;1.60;;
72085;SDS011;64750;52.134;5.424;2022-12-20T00:16:17;2.72;;;1.88;;
72085;SDS011;64750;52.134;5.424;2022-12-20T00:18:45;1.73;;;1.58;;
72085;SDS011;64750;52.134;5.424;2022-12-20T00:21:13;1.95;;;1.63;;
72085;SDS011;64750;52.134;5.424;2022-12-20T00:23:40;2.33;;;2.10;;
72085;SDS011;64750;52.134;5.424;2022-12-20T00:26:08;4.40;;;1.60;;
72085;SDS011;64750;52.134;5.424;2022-12-20T00:28:37;2.17;;;1.70;;
72085;SDS011;64750;52.134;5.424;2022-12-20T00:31:05;1.83;;;1.73;;
72085;SDS011;64750;52.134;5.424;2022-12-20T00:33:33;2.03;;;1.65;;
72085;SDS011;64750;52.134;5.424;2022-12-20T00:36:01;1.70;;;1.60;;
72085;SDS011;64750;52.134;5.424;2022-12-20T00:38:28;1.70;;;1.60;;
72085;SDS011;64750;52.134;5.424;2022-12-20T00:41:05;1.63;;;1.52;;
72085;SDS011;64750;52.134;5.424;2022-12-20T00:43:33;1.38;;;1.27;;
72085;SDS011;64750;52.134;5.424;2022-12-20T00:46:01;3.03;;;1.70;;
72085;SDS011;64750;52.134;5.424;2022-12-20T00:48:28;2.03;;;1.92;;
72085;SDS011;64750;52.134;5.424;2022-12-20T00:50:59;1.77;;;1.50;;
72085;SDS011;64750;52.134;5.424;2022-12-20T00:53:28;2.85;;;1.40;;
72085;SDS011;64750;52.134;5.424;2022-12-20T00:55:54;1.80;;;1.60;;
72085;SDS011;64750;52.134;5.424;2022-12-20T00:58:21;1.50;;;1.40;;
72085;SDS011;64750;52.134;5.424;2022-12-20T01:00:47;1.85;;;1.75;;
72085;SDS011;64750;52.134;5.424;2022-12-20T01:03:21;1.67;;;1.53;;
72085;SDS011;64750;52.134;5.424;2022-12-20T01:05:52;3.67;;;1.67;;
72085;SDS011;64750;52.134;5.424;2022-12-20T01:08:22;2.90;;;1.63;;
72085;SDS011;64750;52.134;5.424;2022-12-20T01:11:03;1.55;;;1.45;;
72085;SDS011;64750;52.134;5.424;2022-12-20T01:13:37;2.20;;;2.00;;
72085;SDS011;64750;52.134;5.424;2022-12-20T01:16:07;1.67;;;1.57;;
72085;SDS011;64750;52.134;5.424;2022-12-20T01:18:36;1.45;;;1.35;;
72085;SDS011;64750;52.134;5.424;2022-12-20T01:21:04;1.63;;;1.52;;
72085;SDS011;64750;52.134;5.424;2022-12-20T01:23:32;1.55;;;1.45;;
72085;SDS011;64750;52.134;5.424;2022-12-20T01:25:59;1.70;;;1.55;;
72085;SDS011;64750;52.134;5.424;2022-12-20T01:28:28;1.57;;;1.37;;
72085;SDS011;64750;52.134;5.424;2022-12-20T01:30:56;1.33;;;1.23;;
72085;SDS011;64750;52.134;5.424;2022-12-20T01:33:22;1.77;;;1.67;;
72085;SDS011;64750;52.134;5.424;2022-12-20T01:35:59;2.70;;;1.55;;
72085;SDS011;64750;52.134;5.424;2022-12-20T01:38:27;1.55;;;1.45;;
72085;SDS011;64750;52.134;5.424;2022-12-20T01:40:54;2.23;;;1.70;;
72085;SDS011;64750;52.134;5.424;2022-12-20T01:43:22;1.65;;;1.38;;
72085;SDS011;64750;52.134;5.424;2022-12-20T01:45:51;2.13;;;1.55;;
72085;SDS011;64750;52.134;5.424;2022-12-20T01:48:20;1.85;;;1.70;;
72085;SDS011;64750;52.134;5.424;2022-12-20T01:50:50;2.00;;;1.80;;
72085;SDS011;64750;52.134;5.424;2022-12-20T01:53:19;1.40;;;1.30;;
72085;SDS011;64750;52.134;5.424;2022-12-20T01:55:48;1.42;;;1.33;;
72085;SDS011;64750;52.134;5.424;2022-12-20T01:58:15;2.10;;;1.90;;
72085;SDS011;64750;52.134;5.424;2022-12-20T02:00:44;1.65;;;1.55;;
72085;SDS011;64750;52.134;5.424;2022-12-20T02:03:11;1.52;;;1.42;;
72085;SDS011;64750;52.134;5.424;2022-12-20T02:05:41;1.87;;;1.50;;
72085;SDS011;64750;52.134;5.424;2022-12-20T02:08:10;1.27;;;1.23;;
72085;SDS011;64750;52.134;5.424;2022-12-20T02:13:24;1.77;;;1.67;;
72085;SDS011;64750;52.134;5.424;2022-12-20T02:16:02;1.80;;;1.70;;
72085;SDS011;64750;52.134;5.424;2022-12-20T02:21:11;2.30;;;1.42;;
72085;SDS011;64750;52.134;5.424;2022-12-20T02:26:49;3.05;;;1.50;;
72085;SDS011;64750;52.134;5.424;2022-12-20T02:32:16;2.43;;;1.30;;
72085;SDS011;64750;52.134;5.424;2022-12-20T02:34:50;1.48;;;1.38;;
72085;SDS011;64750;52.134;5.424;2022-12-20T02:37:17;2.47;;;1.92;;
72085;SDS011;64750;52.134;5.424;2022-12-20T02:39:43;1.77;;;1.65;;
72085;SDS011;64750;52.134;5.424;2022-12-20T02:42:12;1.90;;;1.80;;
72085;SDS011;64750;52.134;5.424;2022-12-20T02:44:43;1.80;;;1.50;;
72085;SDS011;64750;52.134;5.424;2022-12-20T02:47:54;1.90;;;1.77;;
72085;SDS011;64750;52.134;5.424;2022-12-20T02:50:30;1.73;;;1.63;;
72085;SDS011;64750;52.134;5.424;2022-12-20T02:53:01;2.42;;;1.70;;
72085;SDS011;64750;52.134;5.424;2022-12-20T02:55:30;2.63;;;1.50;;
72085;SDS011;64750;52.134;5.424;2022-12-20T02:58:09;1.70;;;1.57;;
72085;SDS011;64750;52.134;5.424;2022-12-20T03:00:43;1.52;;;1.27;;
72085;SDS011;64750;52.134;5.424;2022-12-20T03:03:12;1.65;;;1.52;;
72085;SDS011;64750;52.134;5.424;2022-12-20T03:05:53;2.40;;;1.50;;
72085;SDS011;64750;52.134;5.424;2022-12-20T03:08:21;2.13;;;1.58;;
72085;SDS011;64750;52.134;5.424;2022-12-20T03:10:48;2.20;;;1.60;;
72085;SDS011;64750;52.134;5.424;2022-12-20T03:13:17;1.88;;;1.77;;
72085;SDS011;64750;52.134;5.424;2022-12-20T03:15:43;1.83;;;1.73;;
72085;SDS011;64750;52.134;5.424;2022-12-20T03:18:10;1.70;;;1.60;;
72085;SDS011;64750;52.134;5.424;2022-12-20T03:20:37;2.42;;;1.60;;
72085;SDS011;64750;52.134;5.424;2022-12-20T03:23:04;1.60;;;1.50;;
72085;SDS011;64750;52.134;5.424;2022-12-20T03:25:31;1.80;;;1.70;;
72085;SDS011;64750;52.134;5.424;2022-12-20T03:27:57;1.48;;;1.38;;
72085;SDS011;64750;52.134;5.424;2022-12-20T03:30:24;2.60;;;2.08;;
72085;SDS011;64750;52.134;5.424;2022-12-20T03:32:50;3.13;;;1.52;;
72085;SDS011;64750;52.134;5.424;2022-12-20T03:35:17;1.30;;;1.20;;
72085;SDS011;64750;52.134;5.424;2022-12-20T03:37:43;1.30;;;1.30;;
72085;SDS011;64750;52.134;5.424;2022-12-20T03:40:10;2.13;;;1.90;;
72085;SDS011;64750;52.134;5.424;2022-12-20T03:42:37;1.75;;;1.55;;
72085;SDS011;64750;52.134;5.424;2022-12-20T03:45:03;2.08;;;1.67;;
72085;SDS011;64750;52.134;5.424;2022-12-20T03:47:30;1.57;;;1.47;;
72085;SDS011;64750;52.134;5.424;2022-12-20T03:49:57;1.85;;;1.75;;
72085;SDS011;64750;52.134;5.424;2022-12-20T03:52:23;1.45;;;1.35;;
72085;SDS011;64750;52.134;5.424;2022-12-20T03:54:50;3.15;;;1.80;;
72085;SDS011;64750;52.134;5.424;2022-12-20T03:57:16;2.30;;;1.52;;
72085;SDS011;64750;52.134;5.424;2022-12-20T03:59:43;1.90;;;1.50;;
72085;SDS011;64750;52.134;5.424;2022-12-20T04:02:09;3.95;;;1.63;;
72085;SDS011;64750;52.134;5.424;2022-12-20T04:04:36;2.08;;;1.85;;
72085;SDS011;64750;52.134;5.424;2022-12-20T04:07:03;1.52;;;1.33;;
72085;SDS011;64750;52.134;5.424;2022-12-20T04:09:29;1.75;;;1.65;;
72085;SDS011;64750;52.134;5.424;2022-12-20T04:11:55;1.93;;;1.40;;
72085;SDS011;64750;52.134;5.424;2022-12-20T04:14:22;1.92;;;1.70;;
72085;SDS011;64750;52.134;5.424;2022-12-20T04:16:48;5.13;;;1.63;;
72085;SDS011;64750;52.134;5.424;2022-12-20T04:19:15;1.77;;;1.55;;
72085;SDS011;64750;52.134;5.424;2022-12-20T04:21:41;3.10;;;1.65;;
72085;SDS011;64750;52.134;5.424;2022-12-20T04:24:08;1.67;;;1.30;;
72085;SDS011;64750;52.134;5.424;2022-12-20T04:26:34;1.60;;;1.50;;
72085;SDS011;64750;52.134;5.424;2022-12-20T04:29:01;1.92;;;1.50;;
72085;SDS011;64750;52.134;5.424;2022-12-20T04:31:27;3.05;;;1.60;;
72085;SDS011;64750;52.134;5.424;2022-12-20T04:33:54;3.97;;;1.50;;
72085;SDS011;64750;52.134;5.424;2022-12-20T04:36:20;2.80;;;1.20;;
72085;SDS011;64750;52.134;5.424;2022-12-20T04:38:47;2.13;;;1.60;;
72085;SDS011;64750;52.134;5.424;2022-12-20T04:41:13;2.53;;;1.55;;
72085;SDS011;64750;52.134;5.424;2022-12-20T04:43:51;1.30;;;1.20;;
72085;SDS011;64750;52.134;5.424;2022-12-20T04:46:19;2.00;;;1.65;;
72085;SDS011;64750;52.134;5.424;2022-12-20T04:48:47;1.60;;;1.50;;
72085;SDS011;64750;52.134;5.424;2022-12-20T04:51:23;2.05;;;1.33;;
72085;SDS011;64750;52.134;5.424;2022-12-20T04:53:50;2.40;;;1.55;;
72085;SDS011;64750;52.134;5.424;2022-12-20T04:58:45;2.80;;;1.60;;
72085;SDS011;64750;52.134;5.424;2022-12-20T05:01:12;2.60;;;1.67;;
72085;SDS011;64750;52.134;5.424;2022-12-20T05:03:39;1.30;;;1.08;;
72085;SDS011;64750;52.134;5.424;2022-12-20T05:06:06;5.03;;;1.55;;
72085;SDS011;64750;52.134;5.424;2022-12-20T05:08:33;1.83;;;1.63;;
72085;SDS011;64750;52.134;5.424;2022-12-20T05:11:00;1.50;;;1.40;;
72085;SDS011;64750;52.134;5.424;2022-12-20T05:13:27;3.47;;;1.70;;
72085;SDS011;64750;52.134;5.424;2022-12-20T05:15:54;3.83;;;1.70;;
72085;SDS011;64750;52.134;5.424;2022-12-20T05:18:22;2.53;;;2.22;;
72085;SDS011;64750;52.134;5.424;2022-12-20T05:20:49;1.48;;;1.38;;
72085;SDS011;64750;52.134;5.424;2022-12-20T05:23:36;1.77;;;1.67;;
72085;SDS011;64750;52.134;5.424;2022-12-20T05:26:22;6.33;;;1.40;;
72085;SDS011;64750;52.134;5.424;2022-12-20T05:28:50;2.03;;;1.40;;
72085;SDS011;64750;52.134;5.424;2022-12-20T05:31:17;4.20;;;1.67;;
72085;SDS011;64750;52.134;5.424;2022-12-20T05:33:44;3.28;;;1.60;;
72085;SDS011;64750;52.134;5.424;2022-12-20T05:36:10;2.47;;;1.40;;
72085;SDS011;64750;52.134;5.424;2022-12-20T05:38:37;1.70;;;1.40;;
72085;SDS011;64750;52.134;5.424;2022-12-20T05:41:03;1.48;;;1.25;;
72085;SDS011;64750;52.134;5.424;2022-12-20T05:43:31;1.42;;;1.33;;
72085;SDS011;64750;52.134;5.424;2022-12-20T05:45:58;2.00;;;1.60;;
72085;SDS011;64750;52.134;5.424;2022-12-20T05:48:25;2.55;;;1.88;;
72085;SDS011;64750;52.134;5.424;2022-12-20T05:50:52;2.43;;;1.70;;
72085;SDS011;64750;52.134;5.424;2022-12-20T05:53:18;2.40;;;1.88;;
72085;SDS011;64750;52.134;5.424;2022-12-20T05:55:47;1.98;;;1.77;;
72085;SDS011;64750;52.134;5.424;2022-12-20T05:58:15;3.60;;;1.70;;
72085;SDS011;64750;52.134;5.424;2022-12-20T06:00:42;2.25;;;1.95;;
72085;SDS011;64750;52.134;5.424;2022-12-20T06:03:09;1.73;;;1.63;;
72085;SDS011;64750;52.134;5.424;2022-12-20T06:05:37;2.17;;;1.98;;
72085;SDS011;64750;52.134;5.424;2022-12-20T06:08:04;2.05;;;1.80;;
72085;SDS011;64750;52.134;5.424;2022-12-20T06:10:32;2.92;;;1.70;;
72085;SDS011;64750;52.134;5.424;2022-12-20T06:13:00;2.28;;;1.80;;
72085;SDS011;64750;52.134;5.424;2022-12-20T06:15:27;3.63;;;1.97;;
72085;SDS011;64750;52.134;5.424;2022-12-20T06:17:54;1.80;;;1.70;;
72085;SDS011;64750;52.134;5.424;2022-12-20T06:20:21;1.85;;;1.75;;
72085;SDS011;64750;52.134;5.424;2022-12-20T06:22:47;2.88;;;1.75;;
72085;SDS011;64750;52.134;5.424;2022-12-20T06:25:14;2.67;;;1.90;;
72085;SDS011;64750;52.134;5.424;2022-12-20T06:27:41;1.83;;;1.57;;
72085;SDS011;64750;52.134;5.424;2022-12-20T06:30:08;1.98;;;1.83;;
72085;SDS011;64750;52.134;5.424;2022-12-20T06:32:35;2.03;;;1.80;;
72085;SDS011;64750;52.134;5.424;2022-12-20T06:35:02;3.95;;;1.85;;
72085;SDS011;64750;52.134;5.424;2022-12-20T06:37:29;2.00;;;1.90;;
72085;SDS011;64750;52.134;5.424;2022-12-20T06:39:55;2.07;;;1.87;;
72085;SDS011;64750;52.134;5.424;2022-12-20T06:42:22;1.70;;;1.60;;
72085;SDS011;64750;52.134;5.424;2022-12-20T06:44:49;2.13;;;1.40;;
72085;SDS011;64750;52.134;5.424;2022-12-20T06:47:15;1.55;;;1.45;;
72085;SDS011;64750;52.134;5.424;2022-12-20T06:49:42;2.60;;;1.65;;
72085;SDS011;64750;52.134;5.424;2022-12-20T06:52:09;1.77;;;1.53;;
72085;SDS011;64750;52.134;5.424;2022-12-20T06:54:35;1.52;;;1.30;;
72085;SDS011;64750;52.134;5.424;2022-12-20T06:57:02;1.58;;;1.38;;
72085;SDS011;64750;52.134;5.424;2022-12-20T06:59:28;2.78;;;1.60;;
72085;SDS011;64750;52.134;5.424;2022-12-20T07:01:55;2.55;;;1.30;;
72085;SDS011;64750;52.134;5.424;2022-12-20T07:04:22;1.93;;;1.40;;
72085;SDS011;64750;52.134;5.424;2022-12-20T07:06:48;3.15;;;1.23;;
72085;SDS011;64750;52.134;5.424;2022-12-20T07:09:15;1.75;;;1.52;;
72085;SDS011;64750;52.134;5.424;2022-12-20T07:11:42;1.92;;;1.33;;
72085;SDS011;64750;52.134;5.424;2022-12-20T07:14:08;2.97;;;1.42;;
72085;SDS011;64750;52.134;5.424;2022-12-20T07:16:36;3.20;;;1.60;;
72085;SDS011;64750;52.134;5.424;2022-12-20T07:19:03;2.78;;;1.45;;
72085;SDS011;64750;52.134;5.424;2022-12-20T07:21:30;3.22;;;1.67;;
72085;SDS011;64750;52.134;5.424;2022-12-20T07:23:56;3.63;;;1.60;;
72085;SDS011;64750;52.134;5.424;2022-12-20T07:26:23;5.53;;;1.40;;
72085;SDS011;64750;52.134;5.424;2022-12-20T07:28:50;2.43;;;1.40;;
72085;SDS011;64750;52.134;5.424;2022-12-20T07:31:16;2.72;;;1.50;;
72085;SDS011;64750;52.134;5.424;2022-12-20T07:33:43;1.42;;;1.33;;
72085;SDS011;64750;52.134;5.424;2022-12-20T07:36:10;2.47;;;1.20;;
72085;SDS011;64750;52.134;5.424;2022-12-20T07:38:38;2.42;;;1.25;;
72085;SDS011;64750;52.134;5.424;2022-12-20T07:41:08;3.47;;;1.63;;
72085;SDS011;64750;52.134;5.424;2022-12-20T07:43:36;1.20;;;1.10;;
72085;SDS011;64750;52.134;5.424;2022-12-20T07:46:03;2.00;;;1.45;;
72085;SDS011;64750;52.134;5.424;2022-12-20T07:48:30;1.38;;;1.25;;
72085;SDS011;64750;52.134;5.424;2022-12-20T07:50:58;1.40;;;1.30;;
72085;SDS011;64750;52.134;5.424;2022-12-20T07:53:38;1.57;;;1.33;;
72085;SDS011;64750;52.134;5.424;2022-12-20T07:56:09;1.15;;;1.00;;
72085;SDS011;64750;52.134;5.424;2022-12-20T07:58:37;2.70;;;1.23;;
72085;SDS011;64750;52.134;5.424;2022-12-20T08:01:05;2.70;;;1.42;;
72085;SDS011;64750;52.134;5.424;2022-12-20T08:03:45;2.05;;;1.27;;
72085;SDS011;64750;52.134;5.424;2022-12-20T08:06:15;1.10;;;1.00;;
72085;SDS011;64750;52.134;5.424;2022-12-20T08:08:46;1.33;;;1.23;;
72085;SDS011;64750;52.134;5.424;2022-12-20T08:11:16;1.77;;;1.40;;
72085;SDS011;64750;52.134;5.424;2022-12-20T08:13:44;1.70;;;0.90;;
72085;SDS011;64750;52.134;5.424;2022-12-20T08:16:16;1.35;;;1.25;;
72085;SDS011;64750;52.134;5.424;2022-12-20T08:18:43;1.60;;;1.20;;
72085;SDS011;64750;52.134;5.424;2022-12-20T08:21:09;3.42;;;1.30;;
72085;SDS011;64750;52.134;5.424;2022-12-20T08:23:38;1.50;;;1.40;;
72085;SDS011;64750;52.134;5.424;2022-12-20T08:26:04;1.92;;;1.05;;
72085;SDS011;64750;52.134;5.424;2022-12-20T08:28:31;1.10;;;1.00;;
72085;SDS011;64750;52.134;5.424;2022-12-20T08:31:04;3.43;;;1.10;;
72085;SDS011;64750;52.134;5.424;2022-12-20T08:33:33;1.20;;;1.10;;
72085;SDS011;64750;52.134;5.424;2022-12-20T08:36:03;2.10;;;1.20;;
72085;SDS011;64750;52.134;5.424;2022-12-20T08:38:31;1.20;;;1.10;;
72085;SDS011;64750;52.134;5.424;2022-12-20T08:41:06;1.30;;;1.02;;
72085;SDS011;64750;52.134;5.424;2022-12-20T08:43:35;0.93;;;0.90;;
72085;SDS011;64750;52.134;5.424;2022-12-20T08:46:03;1.20;;;1.10;;
72085;SDS011;64750;52.134;5.424;2022-12-20T08:48:30;3.22;;;1.20;;
72085;SDS011;64750;52.134;5.424;2022-12-20T08:51:05;1.70;;;0.95;;
72085;SDS011;64750;52.134;5.424;2022-12-20T08:53:33;2.15;;;1.13;;
72085;SDS011;64750;52.134;5.424;2022-12-20T08:58:35;0.88;;;0.88;;
72085;SDS011;64750;52.134;5.424;2022-12-20T09:01:03;1.35;;;1.05;;
72085;SDS011;64750;52.134;5.424;2022-12-20T09:03:32;2.20;;;1.00;;
72085;SDS011;64750;52.134;5.424;2022-12-20T09:06:00;1.30;;;0.85;;
72085;SDS011;64750;52.134;5.424;2022-12-20T09:08:30;2.57;;;0.87;;
72085;SDS011;64750;52.134;5.424;2022-12-20T09:11:02;1.20;;;1.00;;
72085;SDS011;64750;52.134;5.424;2022-12-20T09:13:37;1.85;;;1.05;;
72085;SDS011;64750;52.134;5.424;2022-12-20T09:16:09;1.42;;;1.10;;
72085;SDS011;64750;52.134;5.424;2022-12-20T09:18:41;1.17;;;0.88;;
72085;SDS011;64750;52.134;5.424;2022-12-20T09:21:08;1.27;;;1.17;;
72085;SDS011;64750;52.134;5.424;2022-12-20T09:23:36;0.73;;;0.73;;
72085;SDS011;64750;52.134;5.424;2022-12-20T09:26:04;1.52;;;1.10;;
72085;SDS011;64750;52.134;5.424;2022-12-20T09:28:32;3.00;;;1.10;;
72085;SDS011;64750;52.134;5.424;2022-12-20T09:31:00;1.45;;;1.05;;
72085;SDS011;64750;52.134;5.424;2022-12-20T09:33:28;1.00;;;0.80;;
72085;SDS011;64750;52.134;5.424;2022-12-20T09:35:56;1.02;;;0.98;;
72085;SDS011;64750;52.134;5.424;2022-12-20T09:38:24;2.10;;;1.17;;
72085;SDS011;64750;52.134;5.424;2022-12-20T09:40:52;1.88;;;1.00;;
72085;SDS011;64750;52.134;5.424;2022-12-20T09:43:20;1.50;;;0.98;;
72085;SDS011;64750;52.134;5.424;2022-12-20T09:45:50;1.93;;;0.90;;
72085;SDS011;64750;52.134;5.424;2022-12-20T09:48:21;1.40;;;1.00;;
72085;SDS011;64750;52.134;5.424;2022-12-20T09:56:43;1.10;;;1.00;;
72085;SDS011;64750;52.134;5.424;2022-12-20T09:59:13;2.20;;;0.90;;
72085;SDS011;64750;52.134;5.424;2022-12-20T10:01:43;3.20;;;1.10;;
72085;SDS011;64750;52.134;5.424;2022-12-20T10:04:25;4.95;;;1.15;;
72085;SDS011;64750;52.134;5.424;2022-12-20T10:17:49;1.27;;;1.00;;
72085;SDS011;64750;52.134;5.424;2022-12-20T10:23:31;1.95;;;1.50;;
72085;SDS011;64750;52.134;5.424;2022-12-20T10:26:12;1.10;;;0.90;;
72085;SDS011;64750;52.134;5.424;2022-12-20T10:28:38;1.42;;;1.17;;
72085;SDS011;64750;52.134;5.424;2022-12-20T10:31:07;1.00;;;0.90;;
72085;SDS011;64750;52.134;5.424;2022-12-20T10:33:39;2.00;;;1.00;;
72085;SDS011;64750;52.134;5.424;2022-12-20T10:39:11;1.20;;;0.90;;
72085;SDS011;64750;52.134;5.424;2022-12-20T10:46:52;1.98;;;0.88;;
72085;SDS011;64750;52.134;5.424;2022-12-20T10:49:28;1.17;;;1.00;;
72085;SDS011;64750;52.134;5.424;2022-12-20T10:51:58;2.03;;;1.03;;
72085;SDS011;64750;52.134;5.424;2022-12-20T10:56:57;1.23;;;1.10;;
72085;SDS011;64750;52.134;5.424;2022-12-20T10:59:33;1.65;;;1.25;;
72085;SDS011;64750;52.134;5.424;2022-12-20T11:02:09;1.70;;;1.27;;
72085;SDS011;64750;52.134;5.424;2022-12-20T11:07:36;1.20;;;1.10;;
72085;SDS011;64750;52.134;5.424;2022-12-20T11:10:44;1.27;;;0.98;;
72085;SDS011;64750;52.134;5.424;2022-12-20T11:13:24;1.13;;;0.93;;
72085;SDS011;64750;52.134;5.424;2022-12-20T11:15:52;1.38;;;1.20;;
72085;SDS011;64750;52.134;5.424;2022-12-20T11:23:45;1.45;;;1.23;;
72085;SDS011;64750;52.134;5.424;2022-12-20T11:40:36;1.40;;;1.30;;
72085;SDS011;64750;52.134;5.424;2022-12-20T11:51:29;1.55;;;1.20;;
72085;SDS011;64750;52.134;5.424;2022-12-20T11:54:18;1.10;;;1.00;;
72085;SDS011;64750;52.134;5.424;2022-12-20T11:56:52;1.45;;;1.20;;
72085;SDS011;64750;52.134;5.424;2022-12-20T12:01:59;3.30;;;1.13;;
72085;SDS011;64750;52.134;5.424;2022-12-20T12:04:35;0.95;;;0.95;;
72085;SDS011;64750;52.134;5.424;2022-12-20T12:07:19;1.92;;;1.48;;
72085;SDS011;64750;52.134;5.424;2022-12-20T12:12:45;1.70;;;1.57;;
72085;SDS011;64750;52.134;5.424;2022-12-20T12:15:28;1.58;;;0.98;;
72085;SDS011;64750;52.134;5.424;2022-12-20T12:18:05;2.13;;;1.25;;
72085;SDS011;64750;52.134;5.424;2022-12-20T12:23:12;2.05;;;1.38;;
72085;SDS011;64750;52.134;5.424;2022-12-20T12:25:47;2.80;;;1.37;;
72085;SDS011;64750;52.134;5.424;2022-12-20T12:28:13;1.38;;;1.25;;
72085;SDS011;64750;52.134;5.424;2022-12-20T12:30:44;1.63;;;1.20;;
72085;SDS011;64750;52.134;5.424;2022-12-20T12:33:25;1.30;;;1.20;;
72085;SDS011;64750;52.134;5.424;2022-12-20T12:47:23;1.35;;;1.25;;
72085;SDS011;64750;52.134;5.424;2022-12-20T12:49:53;1.50;;;1.40;;
72085;SDS011;64750;52.134;5.424;2022-12-20T12:52:34;2.50;;;1.20;;
72085;SDS011;64750;52.134;5.424;2022-12-20T13:00:47;1.65;;;1.50;;
72085;SDS011;64750;52.134;5.424;2022-12-20T13:11:33;1.65;;;1.55;;
72085;SDS011;64750;52.134;5.424;2022-12-20T13:16:44;1.65;;;1.55;;
72085;SDS011;64750;52.134;5.424;2022-12-20T13:19:31;2.00;;;1.80;;
72085;SDS011;64750;52.134;5.424;2022-12-20T13:25:18;1.77;;;1.60;;
72085;SDS011;64750;52.134;5.424;2022-12-20T13:27:33;1.50;;;1.40;;
72085;SDS011;64750;52.134;5.424;2022-12-20T13:37:59;2.00;;;1.50;;
72085;SDS011;64750;52.134;5.424;2022-12-20T13:40:39;2.35;;;1.35;;
72085;SDS011;64750;52.134;5.424;2022-12-20T13:46:17;1.30;;;1.20;;
72085;SDS011;64750;52.134;5.424;2022-12-20T13:48:49;1.90;;;1.17;;
72085;SDS011;64750;52.134;5.424;2022-12-20T13:51:20;1.40;;;1.30;;
72085;SDS011;64750;52.134;5.424;2022-12-20T13:59:13;1.27;;;1.20;;
72085;SDS011;64750;52.134;5.424;2022-12-20T14:01:59;1.80;;;1.40;;
72085;SDS011;64750;52.134;5.424;2022-12-20T14:04:42;1.52;;;1.05;;
72085;SDS011;64750;52.134;5.424;2022-12-20T14:07:12;1.45;;;1.20;;
72085;SDS011;64750;52.134;5.424;2022-12-20T14:09:43;1.38;;;1.30;;
72085;SDS011;64750;52.134;5.424;2022-12-20T14:12:13;1.50;;;1.40;;
72085;SDS011;64750;52.134;5.424;2022-12-20T14:14:51;1.98;;;1.10;;
72085;SDS011;64750;52.134;5.424;2022-12-20T14:22:29;1.60;;;1.50;;
72085;SDS011;64750;52.134;5.424;2022-12-20T14:24:56;1.33;;;1.30;;
72085;SDS011;64750;52.134;5.424;2022-12-20T14:27:23;1.30;;;1.20;;
72085;SDS011;64750;52.134;5.424;2022-12-20T14:29:51;1.10;;;1.10;;
72085;SDS011;64750;52.134;5.424;2022-12-20T14:32:18;1.50;;;1.40;;
72085;SDS011;64750;52.134;5.424;2022-12-20T14:34:45;1.10;;;1.02;;
72085;SDS011;64750;52.134;5.424;2022-12-20T14:37:16;1.33;;;1.23;;
72085;SDS011;64750;52.134;5.424;2022-12-20T14:39:53;1.13;;;1.05;;
72085;SDS011;64750;52.134;5.424;2022-12-20T14:42:21;1.30;;;1.20;;
72085;SDS011;64750;52.134;5.424;2022-12-20T14:44:47;1.60;;;1.50;;
72085;SDS011;64750;52.134;5.424;2022-12-20T14:47:24;1.52;;;1.42;;
72085;SDS011;64750;52.134;5.424;2022-12-20T14:49:59;1.33;;;1.33;;
72085;SDS011;64750;52.134;5.424;2022-12-20T14:54:58;1.70;;;1.60;;
72085;SDS011;64750;52.134;5.424;2022-12-20T15:00:12;1.80;;;1.70;;
72085;SDS011;64750;52.134;5.424;2022-12-20T15:08:20;1.23;;;1.13;;
72085;SDS011;64750;52.134;5.424;2022-12-20T15:10:58;1.77;;;1.10;;
72085;SDS011;64750;52.134;5.424;2022-12-20T15:13:30;1.20;;;1.20;;
72085;SDS011;64750;52.134;5.424;2022-12-20T15:16:04;2.10;;;1.43;;
72085;SDS011;64750;52.134;5.424;2022-12-20T15:18:39;1.40;;;1.30;;
72085;SDS011;64750;52.134;5.424;2022-12-20T15:23:45;1.40;;;1.30;;
72085;SDS011;64750;52.134;5.424;2022-12-20T15:26:14;1.45;;;1.35;;
72085;SDS011;64750;52.134;5.424;2022-12-20T15:28:42;1.30;;;1.20;;
72085;SDS011;64750;52.134;5.424;2022-12-20T15:31:09;1.30;;;1.20;;
72085;SDS011;64750;52.134;5.424;2022-12-20T15:33:37;2.33;;;2.10;;
72085;SDS011;64750;52.134;5.424;2022-12-20T15:36:05;1.50;;;1.40;;
72085;SDS011;64750;52.134;5.424;2022-12-20T15:38:32;1.70;;;1.60;;
72085;SDS011;64750;52.134;5.424;2022-12-20T15:41:22;1.53;;;1.43;;
72085;SDS011;64750;52.134;5.424;2022-12-20T15:43:56;1.80;;;1.63;;
72085;SDS011;64750;52.134;5.424;2022-12-20T15:46:25;1.70;;;1.60;;
72085;SDS011;64750;52.134;5.424;2022-12-20T15:48:52;1.60;;;1.50;;
72085;SDS011;64750;52.134;5.424;2022-12-20T15:53:53;1.80;;;1.70;;
72085;SDS011;64750;52.134;5.424;2022-12-20T15:56:21;2.10;;;2.00;;
72085;SDS011;64750;52.134;5.424;2022-12-20T15:58:49;1.90;;;1.80;;
72085;SDS011;64750;52.134;5.424;2022-12-20T16:01:24;1.60;;;1.50;;
72085;SDS011;64750;52.134;5.424;2022-12-20T16:04:03;2.60;;;1.73;;
72085;SDS011;64750;52.134;5.424;2022-12-20T16:06:31;1.70;;;1.60;;
72085;SDS011;64750;52.134;5.424;2022-12-20T16:08:58;1.58;;;1.48;;
72085;SDS011;64750;52.134;5.424;2022-12-20T16:11:26;2.38;;;2.28;;
72085;SDS011;64750;52.134;5.424;2022-12-20T16:13:54;1.85;;;1.75;;
72085;SDS011;64750;52.134;5.424;2022-12-20T16:16:26;1.73;;;1.63;;
72085;SDS011;64750;52.134;5.424;2022-12-20T16:18:55;1.80;;;1.70;;
72085;SDS011;64750;52.134;5.424;2022-12-20T16:21:24;3.80;;;2.08;;
72085;SDS011;64750;52.134;5.424;2022-12-20T16:23:52;1.80;;;1.70;;
72085;SDS011;64750;52.134;5.424;2022-12-20T16:26:20;2.08;;;1.98;;
72085;SDS011;64750;52.134;5.424;2022-12-20T16:28:49;2.00;;;1.90;;
72085;SDS011;64750;52.134;5.424;2022-12-20T16:33:51;2.40;;;2.30;;
72085;SDS011;64750;52.134;5.424;2022-12-20T16:36:18;2.40;;;2.08;;
72085;SDS011;64750;52.134;5.424;2022-12-20T16:38:45;2.17;;;2.08;;
72085;SDS011;64750;52.134;5.424;2022-12-20T16:41:19;2.70;;;2.42;;
72085;SDS011;64750;52.134;5.424;2022-12-20T16:43:49;1.87;;;1.77;;
72085;SDS011;64750;52.134;5.424;2022-12-20T16:46:17;2.30;;;2.10;;
72085;SDS011;64750;52.134;5.424;2022-12-20T16:48:45;2.63;;;2.50;;
72085;SDS011;64750;52.134;5.424;2022-12-20T16:51:25;2.40;;;2.30;;
72085;SDS011;64750;52.134;5.424;2022-12-20T16:54:00;2.17;;;2.08;;
72085;SDS011;64750;52.134;5.424;2022-12-20T16:56:45;3.03;;;2.73;;
72085;SDS011;64750;52.134;5.424;2022-12-20T16:59:13;2.53;;;2.35;;
72085;SDS011;64750;52.134;5.424;2022-12-20T17:01:46;2.60;;;2.42;;
72085;SDS011;64750;52.134;5.424;2022-12-20T17:04:15;2.25;;;2.15;;
72085;SDS011;64750;52.134;5.424;2022-12-20T17:06:43;2.60;;;2.40;;
72085;SDS011;64750;52.134;5.424;2022-12-20T17:09:10;2.60;;;2.40;;
72085;SDS011;64750;52.134;5.424;2022-12-20T17:11:37;3.00;;;2.80;;
72085;SDS011;64750;52.134;5.424;2022-12-20T17:14:04;2.58;;;2.40;;
72085;SDS011;64750;52.134;5.424;2022-12-20T17:16:37;2.70;;;2.60;;
72085;SDS011;64750;52.134;5.424;2022-12-20T17:19:04;2.42;;;2.33;;
72085;SDS011;64750;52.134;5.424;2022-12-20T17:21:35;2.37;;;2.27;;
72085;SDS011;64750;52.134;5.424;2022-12-20T17:24:21;2.95;;;2.75;;
72085;SDS011;64750;52.134;5.424;2022-12-20T17:26:48;2.65;;;2.50;;
72085;SDS011;64750;52.134;5.424;2022-12-20T17:29:15;2.60;;;2.50;;
72085;SDS011;64750;52.134;5.424;2022-12-20T17:31:43;2.60;;;2.47;;
72085;SDS011;64750;52.134;5.424;2022-12-20T17:34:45;2.10;;;2.00;;
72085;SDS011;64750;52.134;5.424;2022-12-20T17:37:04;2.35;;;2.25;;
72085;SDS011;64750;52.134;5.424;2022-12-20T17:39:30;2.70;;;2.50;;
72085;SDS011;64750;52.134;5.424;2022-12-20T17:41:57;1.90;;;1.80;;